Latest Coastal Weather Observations for Mornington Island Airport

IDQ60701

Issued at 5:31 pm EST Friday 6 March 2015 (issued every 10 minutes, with the page automatically refreshed every 10 minutes)

About coastal observations | Map of coastal stations | Coastal observations for QLD | Marine services | Other Formats
Station Details ID: 029182 Name: MORNINGTON ISLAND AIRPORT Lat: -16.66 Lon: 139.17 Height: 9.0 m
Data from the previous 72 hours. | See also: Recent months at Mornington Island Airport
Date/Time
EST
Temp

°C
Wind Pressure Rain
since 9am
mm
Weather Cloud Vis
km
Sea
Height
m
Swell
Dir
 
Speed
knots
Gust
knots
hPa Trend Height
m
Period
s
Dir
06/05:30pm 31.5 NNW 11 16 1003.2 - 0.0 - - - - - - -
06/05:00pm 31.9 NNW 11 14 1003.3 - 0.0 - - - - - - -
06/04:30pm 32.5 NNW 12 15 1003.7 - 0.0 - - - - - - -
06/04:00pm 31.8 NW 12 14 1004.0 - 0.0 - - - - - - -
06/03:30pm 32.2 NNW 11 13 1004.1 - 0.0 - - - - - - -
06/03:00pm 31.7 NW 9 12 1004.3 - 0.0 - - - - - - -
06/02:30pm 32.3 NW 9 12 1004.3 - 0.0 - - - - - - -
06/02:00pm 31.5 NW 9 11 1004.7 - 0.0 - - - - - - -
06/01:30pm 31.6 WNW 8 11 1005.2 - 0.0 - - - - - - -
06/01:00pm 31.6 WNW 11 14 1005.7 - 0.0 - - - - - - -
06/12:30pm 31.3 WNW 8 11 1006.5 - 0.0 - - - - - - -
06/12:00pm 31.7 W 8 11 1007.2 - 0.0 - - - - - - -
06/11:30am 31.4 W 9 13 1007.6 - 0.0 - - - - - - -
06/11:00am 31.2 W 7 9 1008.1 - 0.0 - - - - - - -
06/10:30am 31.2 W 6 8 1008.3 - 0.0 - - - - - - -
06/10:00am 31.2 WSW 6 9 1008.3 - 0.0 - - - - - - -
06/09:30am 30.8 W 7 10 1008.0 - 0.0 - - - - - - -
06/09:00am 30.5 W 7 9 1008.2 - 0.0 - - - - - - -
06/08:30am 29.8 W 6 8 1007.9 - 0.0 - - - - - - -
06/08:00am 30.1 WNW 9 11 1007.4 - 0.0 - - - - - - -
06/07:30am 30.1 WNW 9 11 1007.3 - 0.0 - - - - - - -
06/07:00am 29.7 NW 9 11 1007.0 - 0.0 - - - - - - -
06/06:30am 29.7 NW 9 11 1007.0 - 0.0 - - - - - - -
06/06:00am 29.6 NW 11 13 1006.5 - 0.0 - - - - - - -
06/05:30am 29.7 NW 11 14 1006.3 - 0.0 - - - - - - -
06/05:00am 29.8 NW 10 14 1006.2 - 0.0 - - - - - - -
06/04:30am 29.6 NW 11 15 1006.0 - 0.0 - - - - - - -
06/04:00am 29.7 NW 12 15 1006.0 - 0.0 - - - - - - -
06/03:30am 29.9 NW 10 14 1006.0 - 0.0 - - - - - - -
06/03:00am 29.6 NW 10 12 1006.2 - 0.0 - - - - - - -
06/02:30am 29.7 NW 9 12 1006.6 - 0.0 - - - - - - -
06/02:00am 29.5 NW 9 11 1007.0 - 0.0 - - - - - - -
06/01:30am 29.5 NNW 9 11 1007.1 - 0.0 - - - - - - -
06/01:00am 29.5 NNW 9 11 1007.5 - 0.0 - - - - - - -
06/12:30am 29.5 NNW 9 11 1007.5 - 0.0 - - - - - - -
06/12:00am 29.3 NNW 8 11 1008.0 - 0.0 - - - - - - -
 
Date/Time
EST
Temp

°C
Wind Pressure Rain
since 9am
mm
Weather Cloud Vis
km
Sea
Height
m
Swell
Dir
 
Speed
knots
Gust
knots
hPa Trend Height
m
Period
s
Dir
05/11:30pm 29.3 N 7 9 1008.2 - 0.0 - - - - - - -
05/11:00pm 29.0 N 5 7 1008.1 - 0.0 - - - - - - -
05/10:30pm 28.9 N 5 7 1008.0 - 0.0 - - - - - - -
05/10:00pm 28.8 NW 5 6 1007.8 - 0.0 - - - - - - -
05/09:30pm 28.3 N 5 6 1007.4 - 0.0 - - - - - - -
05/09:00pm 28.1 NNE 5 6 1007.0 - 0.0 - - - - - - -
05/08:30pm 28.3 NNE 4 5 1006.6 - 0.0 - - - - - - -
05/08:00pm 28.7 NNE 3 5 1006.3 - 0.0 - - - - - - -
05/07:30pm 28.9 N 5 6 1005.6 - 0.0 - - - - - - -
05/07:00pm 29.8 N 4 5 1005.3 - 0.0 - - - - - - -
05/06:30pm 30.7 N 7 8 1005.3 - 0.0 - - - - - - -
05/06:00pm 31.2 NNW 6 8 1005.3 - 0.0 - - - - - - -
05/05:30pm 31.7 NW 7 9 1005.4 - 0.0 - - - - - - -
05/05:00pm 32.0 NNW 6 8 1005.7 - 0.0 - - - - - - -
05/04:30pm 31.7 NW 7 10 1006.1 - 0.0 - - - - - - -
05/04:00pm 31.9 WNW 8 11 1006.1 - 0.0 - - - - - - -
05/03:30pm 32.0 WNW 8 10 1006.4 - 0.0 - - - - - - -
05/03:00pm 32.0 NW 7 8 1006.5 - 0.0 - - - - - - -
05/02:30pm 31.8 WNW 8 9 1006.7 - 0.0 - - - - - - -
05/02:00pm 31.9 WNW 7 9 1007.2 - 0.0 - - - - - - -
05/01:30pm 32.1 W 7 9 1007.8 - 0.0 - - - - - - -
05/01:00pm 31.8 W 7 8 1008.4 - 0.0 - - - - - - -
05/12:30pm 31.8 W 7 9 1008.8 - 0.0 - - - - - - -
05/12:00pm 31.8 W 7 9 1009.3 - 0.0 - - - - - - -
05/11:30am 31.4 WSW 6 9 1009.7 - 0.0 - - - - - - -
05/11:00am 30.5 WSW 6 9 1010.1 - 0.0 - - - - - - -
05/10:30am 30.6 WSW 5 7 1010.3 - 0.0 - - - - - - -
05/10:00am 31.0 WSW 5 7 1010.5 - 0.0 - - - - - - -
05/09:30am 30.8 WSW 5 7 1010.4 - 0.0 - - - - - - -
05/09:00am 30.4 NW 4 6 1010.0 - 0.6 - - - - - - -
05/08:30am 29.9 WNW 4 6 1009.4 - 0.6 - - - - - - -
05/08:00am 29.4 WSW 3 5 1009.2 - 0.6 - - - - - - -
05/07:30am 28.8 WSW 5 7 1008.8 - 0.6 - - - - - - -
05/07:00am 28.6 WSW 6 8 1008.6 - 0.6 - - - - - - -
05/06:30am 28.5 WSW 5 8 1008.2 - 0.6 - - - - - - -
05/06:00am 28.6 W 6 8 1007.8 - 0.6 - - - - - - -
05/05:30am 28.2 W 4 6 1007.7 - 0.6 - - - - - - -
05/05:00am 28.7 W 7 8 1007.4 - 0.6 - - - - - - -
05/04:30am 28.8 W 7 9 1007.4 - 0.6 - - - - - - -
05/04:00am 28.8 W 7 9 1007.3 - 0.6 - - - - - - -
05/03:30am 28.8 WNW 9 11 1007.3 - 0.6 - - - - - - -
05/03:00am 28.8 WNW 8 10 1007.4 - 0.6 - - - - - - -
05/02:30am 28.9 WNW 7 9 1007.8 - 0.6 - - - - - - -
05/02:00am 28.9 WNW 7 10 1008.2 - 0.6 - - - - - - -
05/01:30am 28.8 WNW 7 9 1008.3 - 0.6 - - - - - - -
05/01:00am 28.8 NW 8 9 1008.5 - 0.6 - - - - - - -
05/12:30am 29.0 NW 8 11 1008.6 - 0.6 - - - - - - -
05/12:00am 29.0 NW 9 11 1008.8 - 0.6 - - - - - - -
 
Date/Time
EST
Temp

°C
Wind Pressure Rain
since 9am
mm
Weather Cloud Vis
km
Sea
Height
m
Swell
Dir
 
Speed
knots
Gust
knots
hPa Trend Height
m
Period
s
Dir
04/11:30pm 28.3 NNW 6 7 1008.9 - 0.6 - - - - - - -
04/11:00pm 28.2 NNW 6 7 1008.7 - 0.6 - - - - - - -
04/10:30pm 27.6 N 5 6 1008.7 - 0.6 - - - - - - -
04/10:00pm 27.4 N 5 6 1008.6 - 0.6 - - - - - - -
04/09:30pm 27.5 N 5 7 1008.3 - 0.6 - - - - - - -
04/09:00pm 27.7 NNW 5 6 1008.2 - 0.6 - - - - - - -
04/08:30pm 28.0 N 5 6 1007.9 - 0.6 - - - - - - -
04/08:00pm 28.0 N 5 6 1007.6 - 0.6 - - - - - - -
04/07:30pm 28.3 N 4 5 1007.4 - 0.6 - - - - - - -
04/07:00pm 29.2 NNW 4 5 1007.1 - 0.6 - - - - - - -
04/06:30pm 30.1 NNW 6 8 1007.0 - 0.6 - - - - - - -
04/06:00pm 31.0 WNW 5 6 1007.0 - 0.6 - - - - - - -
04/05:30pm 31.3 NW 6 9 1007.1 - 0.6 - - - - - - -
04/05:00pm 31.1 WNW 7 9 1007.3 - 0.6 - - - - - - -
04/04:30pm 31.4 NW 6 8 1007.2 - 0.6 - - - - - - -
04/04:00pm 31.5 NW 7 11 1007.4 - 0.6 - - - - - - -
04/03:30pm 31.3 NW 8 9 1007.7 - 0.6 - - - - - - -
04/03:00pm 31.7 NW 7 10 1007.9 - 0.6 - - - - - - -
04/02:30pm 31.1 NW 9 11 1008.0 - 0.6 - - - - - - -
04/02:00pm 31.1 NW 8 10 1008.5 - 0.6 - - - - - - -
04/01:30pm 30.9 WNW 8 11 1009.1 - 0.6 - - - - - - -
04/01:00pm 31.3 NW 9 11 1009.6 - 0.6 - - - - - - -
04/12:30pm 30.7 NW 6 9 1009.9 - 0.6 - - - - - - -
04/12:00pm 30.3 ENE 5 6 1010.3 - 0.6 Rain - - - - - -
04/11:30am 28.9 E 6 8 1010.7 - 0.4 - - - - - - -
04/11:00am 28.1 NNE 3 5 1011.2 - 0.4 - - - - - - -
04/10:30am 26.8 NE 4 6 1011.7 - 0.4 - - - - - - -
04/10:00am 26.4 ENE 6 8 1011.8 - 0.4 - - - - - - -
04/09:30am 25.2 E 4 6 1011.5 - 0.4 - - - - - - -
04/09:00am 24.8 NE 6 9 1011.5 - - - - - - - - -
04/08:30am 24.8 NE 9 13 1011.1 - - - - - - - - -
04/08:00am 24.5 ENE 13 17 1010.4 - - - - - - - - -
04/07:30am 25.3 E 19 29 1010.2 - - - - - - - - -
04/07:27am 25.7 ENE 14 28 1010.1 - - - - - - - - -
04/07:24am 26.9 ENE 8 24 1010.0 - - - - - - - - -
04/07:00am 27.8 SSE 1 5 1009.1 - - - - - - - - -
04/06:30am 28.4 SSW 1 4 1008.2 - - - - - - - - -
04/06:00am 29.0 WSW 5 7 1007.7 - - - - - - - - -
04/05:30am 29.0 WSW 5 7 1007.4 - - - - - - - - -
04/05:00am 28.9 WSW 5 7 1007.0 - - - - - - - - -
04/04:30am 29.1 WSW 6 8 1006.9 - - - - - - - - -
04/04:00am 29.1 WSW 5 7 1007.0 - - - - - - - - -
04/03:30am 29.1 WSW 6 8 1007.0 - - - - - - - - -
04/03:00am 29.1 W 8 10 1006.7 - 0.0 - - - - - - -
04/02:30am 29.1 W 7 9 1006.9 - - - - - - - - -
04/02:00am 29.1 W 8 10 1007.2 - - - - - - - - -
04/01:30am 29.0 W 7 9 1007.8 - - - - - - - - -
04/01:00am 29.1 WNW 7 9 1008.2 - - - - - - - - -
04/12:30am 28.8 WNW 6 7 1008.7 - - - - - - - - -
04/12:00am 28.9 WNW 6 8 1008.8 - - - - - - - - -
 
Date/Time
EST
Temp

°C
Wind Pressure Rain
since 9am
mm
Weather Cloud Vis
km
Sea
Height
m
Swell
Dir
 
Speed
knots
Gust
knots
hPa Trend Height
m
Period
s
Dir
03/11:30pm 29.0 NW 7 8 1008.8 - - - - - - - - -
03/11:00pm 29.0 NW 6 8 1008.9 - - - - - - - - -
03/10:30pm 28.1 NNW 4 5 1009.0 - - - - - - - - -
03/10:00pm 27.9 NNW 5 5 1008.9 - - - - - - - - -
03/09:30pm 27.9 N 4 5 1008.8 - - - - - - - - -
03/09:00pm 28.1 NW 4 5 1008.6 - 9.0 - - - - - - -
03/08:30pm 28.2 N 4 5 1008.3 - - - - - - - - -
03/08:00pm 28.4 NNE 3 4 1007.9 - - - - - - - - -
03/07:30pm 28.8 NW 3 4 1007.4 - - - - - - - - -
03/07:00pm 29.3 N 3 5 1007.1 - - - - - - - - -
03/06:30pm 30.3 NW 4 5 1006.8 - - - - - - - - -
03/06:00pm 30.9 WSW 1 4 1006.8 - - - - - - - - -

Other Formats:

Comma delimited format used in spreadsheet applications
http://www.bom.gov.au/fwo/IDQ60701/IDQ60701.94254.axf

JavaScript Object Notation format (JSON) in row-major order
http://www.bom.gov.au/fwo/IDQ60701/IDQ60701.94254.json